Time;durP1;ratioP1;P1;durP2;ratioP2;P2;SDS_P1;SDS_P2;PMS_P1;PMS_P2;Temp;Humidity;BMP_temperature;BMP_pressure;BME280_temperature;BME280_humidity;BME280_pressure;Samples;Min_cycle;Max_cycle;Signal;HPM_P1;HPM_P2
2022/05/08 00:01:25;;;;;;;5.87;2.40;;;;;;;9.92;100.00;61861.22;5091210;28;20256;-71
2022/05/08 00:03:52;;;;;;;6.87;2.80;;;;;;;9.77;100.00;61845.69;5091094;28;20461;-74
2022/05/08 00:06:18;;;;;;;4.07;2.60;;;;;;;9.65;100.00;61829.75;5091172;28;20438;-72
2022/05/08 00:08:45;;;;;;;6.93;3.03;;;;;;;9.63;100.00;61832.72;5090764;28;21023;-72
2022/05/08 00:11:15;;;;;;;7.17;2.83;;;;;;;9.56;100.00;61825.22;5094253;28;20755;-73
2022/05/08 00:13:42;;;;;;;5.70;2.60;;;;;;;9.56;100.00;61822.69;5095787;28;20495;-71
2022/05/08 00:16:10;;;;;;;6.67;2.50;;;;;;;9.54;100.00;61825.63;5093934;28;20453;-71
2022/05/08 00:18:37;;;;;;;6.57;2.63;;;;;;;9.42;100.00;61810.25;5095119;28;20445;-72
2022/05/08 00:21:05;;;;;;;8.03;3.00;;;;;;;9.46;100.00;61814.53;5095016;28;20245;-72
2022/05/08 00:23:32;;;;;;;8.03;2.90;;;;;;;9.46;100.00;61814.53;5094843;28;20446;-72
2022/05/08 00:25:58;;;;;;;8.57;3.83;;;;;;;9.40;100.00;61805.56;5094799;28;20269;-71
2022/05/08 00:28:27;;;;;;;7.70;3.87;;;;;;;9.41;100.00;61811.72;5094538;28;20499;-73
2022/05/08 00:30:54;;;;;;;7.00;3.30;;;;;;;9.32;100.00;61800.59;5094748;28;20199;-73
2022/05/08 00:33:21;;;;;;;7.93;3.00;;;;;;;9.38;100.00;61801.94;5095099;28;20196;-72
2022/05/08 00:35:48;;;;;;;5.63;2.90;;;;;;;9.06;100.00;61767.72;5094674;28;20537;-73
2022/05/08 00:38:15;;;;;;;9.07;3.10;;;;;;;9.14;100.00;61778.81;5094523;28;20475;-72
2022/05/08 00:40:42;;;;;;;5.43;2.97;;;;;;;9.20;100.00;61785.22;5094848;28;20204;-72
2022/05/08 00:43:28;;;;;;;4.87;3.00;;;;;;;9.16;100.00;61780.41;5094688;28;20620;-73
2022/05/08 00:45:55;;;;;;;6.40;3.20;;;;;;;9.18;100.00;61782.53;5094589;28;20199;-72
2022/05/08 00:48:22;;;;;;;8.43;3.47;;;;;;;9.32;100.00;61795.53;5094240;28;20497;-72
2022/05/08 00:50:50;;;;;;;5.97;3.30;;;;;;;9.28;100.00;61798.88;5094120;28;20445;-72
2022/05/08 00:53:17;;;;;;;6.47;3.23;;;;;;;9.03;100.00;61767.06;5094076;28;20225;-73
2022/05/08 00:55:44;;;;;;;9.90;2.90;;;;;;;9.09;100.00;61770.94;5094030;28;20499;-73
2022/05/08 00:58:11;;;;;;;6.47;2.97;;;;;;;8.53;100.00;61716.13;5094245;28;20502;-71
2022/05/08 01:00:39;;;;;;;6.80;3.10;;;;;;;8.80;100.00;61739.91;5094262;28;20445;-73
2022/05/08 01:03:06;;;;;;;4.47;3.10;;;;;;;8.64;100.00;61729.88;5093991;28;20445;-72
2022/05/08 01:05:34;;;;;;;6.37;2.83;;;;;;;8.86;100.00;61748.84;5094347;28;20452;-72
2022/05/08 01:08:02;;;;;;;4.97;2.50;;;;;;;8.69;100.00;61730.69;5094012;28;20448;-72
2022/05/08 01:10:29;;;;;;;5.30;3.43;;;;;;;8.28;100.00;61689.38;5094071;28;20497;-73
2022/05/08 01:12:56;;;;;;;16.13;7.20;;;;;;;8.58;100.00;61724.00;5093829;28;20445;-72
2022/05/08 01:15:23;;;;;;;24.67;10.03;;;;;;;8.24;100.00;61683.09;5093600;28;20483;-73
2022/05/08 01:17:52;;;;;;;27.27;13.03;;;;;;;8.40;100.00;61699.69;5093694;28;20453;-73
2022/05/08 01:20:19;;;;;;;24.43;10.80;;;;;;;8.44;100.00;61709.03;5093992;28;20464;-72
2022/05/08 01:22:47;;;;;;;16.80;8.23;;;;;;;8.49;100.00;61709.31;5092531;28;20429;-72
2022/05/08 01:25:14;;;;;;;22.40;9.60;;;;;;;8.60;100.00;61723.06;5093747;28;20442;-71
2022/05/08 01:27:41;;;;;;;28.33;10.17;;;;;;;8.61;100.00;61719.59;5093692;28;20544;-73
2022/05/08 01:30:09;;;;;;;16.80;8.93;;;;;;;7.97;100.00;61658.78;5109494;28;20496;-73
2022/05/08 01:32:36;;;;;;;18.83;8.80;;;;;;;8.45;100.00;61705.03;5093605;28;20881;-72
2022/05/08 01:35:03;;;;;;;17.73;8.53;;;;;;;8.54;100.00;61714.66;5093483;28;20535;-72
2022/05/08 01:37:30;;;;;;;18.13;7.33;;;;;;;8.50;100.00;61707.81;5093587;28;20454;-72
2022/05/08 01:39:58;;;;;;;19.40;7.40;;;;;;;8.51;100.00;61711.44;5093332;28;20450;-72
2022/05/08 01:42:27;;;;;;;17.63;8.47;;;;;;;7.23;100.00;61575.75;5093626;28;20449;-72
2022/05/08 01:44:54;;;;;;;14.30;7.33;;;;;;;8.39;100.00;61703.69;5093131;28;20796;-72
2022/05/08 01:50:07;;;;;;;14.37;4.57;;;;;;;8.40;100.00;61699.69;5096672;28;20599;-72
2022/05/08 01:52:33;;;;;;;14.13;7.93;;;;;;;8.47;100.00;61707.16;5094512;28;20948;-73
2022/05/08 01:55:02;;;;;;;17.60;7.57;;;;;;;8.37;100.00;61693.94;5094826;28;20960;-72
2022/05/08 01:57:29;;;;;;;18.23;7.87;;;;;;;8.44;100.00;61706.50;5093307;28;20438;-72
2022/05/08 01:59:55;;;;;;;18.07;8.07;;;;;;;8.40;100.00;61699.69;5093239;28;20821;-72
2022/05/08 02:02:23;;;;;;;20.77;8.43;;;;;;;8.44;100.00;61703.94;5093297;28;20446;-73
2022/05/08 02:04:50;;;;;;;14.97;8.87;;;;;;;8.42;100.00;61702.34;5092993;28;21037;-75
2022/05/08 02:07:16;;;;;;;17.40;8.00;;;;;;;8.26;100.00;61684.72;5092983;28;20979;-72
2022/05/08 02:09:44;;;;;;;12.20;6.13;;;;;;;8.33;100.00;61694.75;5092869;28;20480;-72
2022/05/08 02:12:14;;;;;;;11.03;5.73;;;;;;;8.25;100.00;61686.19;5092892;28;20438;-71
2022/05/08 02:14:43;;;;;;;11.50;5.63;;;;;;;8.26;100.00;61684.72;5093086;28;20505;-72
2022/05/08 02:17:10;;;;;;;16.93;9.20;;;;;;;8.15;100.00;61672.94;5092966;28;20445;-71
2022/05/08 02:19:37;;;;;;;32.13;11.23;;;;;;;7.88;100.00;61642.09;5091382;28;20441;-73
2022/05/08 02:22:04;;;;;;;29.93;15.27;;;;;;;8.11;100.00;61668.66;5092609;28;20503;-72
2022/05/08 02:24:31;;;;;;;17.87;9.70;;;;;;;8.08;100.00;61665.47;5092518;28;20450;-73
2022/05/08 02:26:58;;;;;;;21.27;11.43;;;;;;;7.97;100.00;61656.25;5092540;28;20465;-72
2022/05/08 02:29:27;;;;;;;32.53;12.03;;;;;;;7.94;100.00;61653.03;5092348;28;20477;-73
2022/05/08 02:31:53;;;;;;;24.53;12.83;;;;;;;7.86;100.00;61647.03;5092445;28;20441;-72
2022/05/08 02:34:23;;;;;;;19.20;9.53;;;;;;;7.16;100.00;61572.81;5091671;28;20473;-72
2022/05/08 02:36:49;;;;;;;12.47;7.00;;;;;;;7.25;100.00;61577.88;5092179;28;20458;-72
2022/05/08 02:39:17;;;;;;;13.07;5.30;;;;;;;7.84;100.00;61644.88;5092497;28;20510;-74
2022/05/08 02:41:45;;;;;;;10.10;4.90;;;;;;;7.81;100.00;61636.63;5092320;28;20454;-72
2022/05/08 02:44:12;;;;;;;11.03;6.10;;;;;;;7.80;100.00;61635.53;5092246;28;20537;-73
2022/05/08 02:46:40;;;;;;;12.23;4.60;;;;;;;7.84;100.00;61644.88;5092176;28;20449;-72
2022/05/08 02:49:07;;;;;;;10.37;3.70;;;;;;;7.82;100.00;61637.69;5091928;28;20526;-71
2022/05/08 02:51:34;;;;;;;8.90;3.80;;;;;;;7.92;100.00;61645.81;5091978;28;20510;-72
2022/05/08 02:54:01;;;;;;;7.43;4.20;;;;;;;7.81;100.00;61634.09;5092093;28;20457;-72
2022/05/08 02:59:12;;;;;;;7.33;3.80;;;;;;;7.56;100.00;61613.53;5092212;28;20429;-71
2022/05/08 03:01:40;;;;;;;4.43;3.43;;;;;;;7.80;100.00;61635.53;5091999;28;20515;-72
2022/05/08 03:04:07;;;;;;;8.17;3.93;;;;;;;7.80;100.00;61635.53;5091816;28;20441;-73
2022/05/08 03:06:34;;;;;;;14.80;7.07;;;;;;;7.72;100.00;61627.00;5091812;28;20499;-72
2022/05/08 03:09:01;;;;;;;21.17;8.00;;;;;;;7.63;100.00;61621.00;5091674;28;20874;-72
2022/05/08 03:11:29;;;;;;;27.33;11.43;;;;;;;7.59;100.00;61616.72;5091980;28;20438;-72
2022/05/08 03:14:01;;;;;;;11.97;6.00;;;;;;;7.42;100.00;61601.09;5091520;28;20452;-73
2022/05/08 03:16:28;;;;;;;9.17;4.80;;;;;;;7.09;100.00;61563.31;5091637;28;20460;-73
2022/05/08 03:18:57;;;;;;;7.70;4.13;;;;;;;7.39;100.00;61592.81;5091518;28;20549;-71
2022/05/08 03:21:26;;;;;;;8.07;4.33;;;;;;;7.06;100.00;61557.59;5091537;28;20499;-72
2022/05/08 03:23:52;;;;;;;9.87;4.27;;;;;;;7.04;100.00;61552.94;5091517;28;21001;-72
2022/05/08 03:26:20;;;;;;;9.43;5.10;;;;;;;7.13;100.00;61565.06;5091584;28;20484;-72
2022/05/08 03:28:47;;;;;;;13.20;5.63;;;;;;;7.29;100.00;61587.22;5091422;28;21027;-71
2022/05/08 03:31:14;;;;;;;12.83;6.00;;;;;;;7.40;100.00;61593.91;5091355;28;20481;-73
2022/05/08 03:33:42;;;;;;;11.50;6.00;;;;;;;7.48;100.00;61604.97;5091649;28;20430;-73
2022/05/08 03:36:11;;;;;;;13.30;5.63;;;;;;;7.51;100.00;61607.63;5091490;28;20445;-72
2022/05/08 03:38:41;;;;;;;9.47;5.00;;;;;;;6.90;100.00;61545.03;5091271;28;21035;-73
2022/05/08 03:41:08;;;;;;;12.20;4.53;;;;;;;7.44;100.00;61600.72;5091418;28;20441;-72
2022/05/08 03:43:40;;;;;;;7.20;4.17;;;;;;;7.50;100.00;61607.13;5091047;28;20514;-74
2022/05/08 03:46:07;;;;;;;14.97;4.10;;;;;;;7.48;100.00;61601.91;5090819;28;20976;-73
2022/05/08 03:48:36;;;;;;;8.10;3.70;;;;;;;7.56;100.00;61610.97;5091529;28;20442;-73
2022/05/08 03:51:05;;;;;;;6.43;3.40;;;;;;;7.91;100.00;61647.81;5091249;28;20554;-71
2022/05/08 03:53:35;;;;;;;6.40;3.40;;;;;;;7.81;100.00;61636.63;5091152;28;20966;-72
2022/05/08 03:56:02;;;;;;;6.67;3.60;;;;;;;7.99;100.00;61655.84;5091207;28;20453;-72
2022/05/08 03:58:29;;;;;;;10.17;3.33;;;;;;;8.16;100.00;61671.47;5091148;28;20467;-73
2022/05/08 04:00:56;;;;;;;5.23;3.17;;;;;;;8.34;100.00;61696.34;5091074;28;20499;-72
2022/05/08 04:03:23;;;;;;;7.37;2.80;;;;;;;8.46;100.00;61706.09;5091304;28;20449;-73
2022/05/08 04:05:51;;;;;;;6.60;3.60;;;;;;;8.59;100.00;61720.00;5091691;28;20507;-71
2022/05/08 04:08:17;;;;;;;7.43;3.07;;;;;;;8.66;100.00;61727.47;5091203;28;20566;-72
2022/05/08 04:10:45;;;;;;;5.33;3.50;;;;;;;8.81;100.00;61743.53;5090627;28;20481;-72
2022/05/08 04:13:12;;;;;;;9.07;3.70;;;;;;;8.71;100.00;61730.28;5090526;28;20438;-72
2022/05/08 04:18:23;;;;;;;9.20;3.50;;;;;;;7.79;100.00;61631.94;5092515;28;20432;-73
2022/05/08 04:20:50;;;;;;;5.33;3.27;;;;;;;8.91;100.00;61751.13;5091050;28;20884;-71
2022/05/08 04:26:02;;;;;;;5.67;3.20;;;;;;;8.96;100.00;61759.56;5090819;28;20556;-73
2022/05/08 04:28:31;;;;;;;5.97;3.13;;;;;;;8.88;100.00;61751.00;5090629;28;20817;-71
2022/05/08 04:30:58;;;;;;;5.50;3.00;;;;;;;9.28;100.00;61793.78;5090747;28;20312;-72
2022/05/08 04:33:26;;;;;;;5.83;3.00;;;;;;;9.45;100.00;61808.91;5090550;28;20516;-72
2022/05/08 04:35:53;;;;;;;6.13;3.57;;;;;;;9.38;100.00;61803.44;5090542;28;20203;-71
2022/05/08 04:38:19;;;;;;;10.53;3.60;;;;;;;9.32;100.00;61803.16;5090653;28;20626;-70
2022/05/08 04:40:46;;;;;;;7.00;3.67;;;;;;;9.35;100.00;61803.81;5090157;28;21005;-72
2022/05/08 04:43:14;;;;;;;4.50;3.20;;;;;;;9.28;100.00;61793.78;5090626;28;20446;-74
2022/05/08 04:45:41;;;;;;;8.13;3.53;;;;;;;9.41;100.00;61806.63;5090779;28;20438;-72
2022/05/08 04:48:08;;;;;;;8.37;3.63;;;;;;;9.34;100.00;61800.22;5090460;28;20987;-72
2022/05/08 04:50:36;;;;;;;10.70;3.50;;;;;;;9.59;100.00;61826.44;5090611;28;20481;-73
2022/05/08 04:53:04;;;;;;;5.27;3.63;;;;;;;9.86;100.00;61857.34;5090552;28;20192;-71
2022/05/08 04:55:32;;;;;;;4.50;3.03;;;;;;;10.00;100.00;61869.78;5090678;28;20681;-73
2022/05/08 04:57:59;;;;;;;11.07;3.80;;;;;;;10.09;100.00;61874.88;5094121;28;20446;-72
2022/05/08 05:00:28;;;;;;;7.03;3.30;;;;;;;10.08;100.00;61878.34;5094227;28;20660;-72
2022/05/08 05:02:56;;;;;;;7.70;3.80;;;;;;;10.11;100.00;61881.56;5094133;28;20662;-73
2022/05/08 05:05:23;;;;;;;6.67;3.60;;;;;;;10.33;100.00;61900.03;5094177;28;20732;-73
2022/05/08 05:07:49;;;;;;;4.30;3.37;;;;;;;10.36;100.00;61908.34;5094088;28;20195;-73
2022/05/08 05:10:18;;;;;;;11.77;4.10;;;;;;;10.68;100.00;61942.63;5094273;28;20288;-73
2022/05/08 05:12:44;;;;;;;7.83;3.80;;;;;;;10.81;100.00;61956.56;5094007;28;20272;-74
2022/05/08 05:15:12;;;;;;;7.23;3.53;;;;;;;10.87;100.00;61960.44;5093876;28;20678;-73
2022/05/08 05:17:41;;;;;;;5.07;3.50;;;;;;;10.97;100.00;61973.69;5093944;28;20282;-74
2022/05/08 05:20:08;;;;;;;3.53;3.00;;;;;;;10.95;100.00;61971.56;5093817;28;20211;-72
2022/05/08 05:22:35;;;;;;;5.23;3.20;;;;;;;11.32;100.00;62010.16;5093946;28;20196;-74
2022/05/08 05:25:03;;;;;;;5.33;3.60;;;;;;;11.43;100.00;62021.94;5093658;28;20207;-73
2022/05/08 05:27:29;;;;;;;8.07;3.13;;;;;;;11.52;100.00;62029.03;5093548;28;20243;-72
2022/05/08 05:29:58;;;;;;;7.80;2.93;;;;;;;11.09;100.00;61985.50;5093437;28;20269;-71
2022/05/08 05:32:25;;;;;;;6.43;3.43;;;;;;;11.98;100.00;62080.94;5095162;28;20244;-72
2022/05/08 05:34:53;;;;;;;5.27;3.00;;;;;;;11.99;100.00;62082.03;5096996;28;20227;-72
2022/05/08 05:37:20;;;;;;;6.97;3.10;;;;;;;12.24;100.00;62108.84;5094715;28;20199;-72
2022/05/08 05:39:47;;;;;;;5.10;3.00;;;;;;;12.33;100.00;62118.50;5093858;28;20192;-72
2022/05/08 05:42:14;;;;;;;6.40;3.67;;;;;;;12.40;100.00;62126.00;5093609;28;20253;-72
2022/05/08 05:44:41;;;;;;;9.43;3.50;;;;;;;12.68;100.00;62156.06;5093515;28;20196;-74
2022/05/08 05:49:53;;;;;;;6.23;3.30;;;;;;;13.09;100.00;62201.59;5093141;28;20257;-72
2022/05/08 05:52:20;;;;;;;6.27;3.03;;;;;;;13.37;100.00;62234.22;5093042;28;20249;-72
2022/05/08 05:54:48;;;;;;;4.50;3.07;;;;;;;13.76;100.00;62270.47;5093217;28;20268;-72
2022/05/08 05:57:15;;;;;;;6.23;3.10;;;;;;;13.97;100.00;62293.59;5093493;28;20271;-72
2022/05/08 05:59:42;;;;;;;6.33;3.20;;;;;;;14.07;100.00;62304.34;5093341;28;20199;-72
2022/05/08 06:02:09;;;;;;;4.67;2.83;;;;;;;14.22;100.00;62319.94;5093790;28;20662;-73
2022/05/08 06:04:36;;;;;;;6.43;3.03;;;;;;;14.35;100.00;62334.47;5094935;28;20199;-72
2022/05/08 06:07:06;;;;;;;4.30;3.03;;;;;;;14.58;100.00;62358.13;5093069;28;20195;-72
2022/05/08 06:09:33;;;;;;;8.73;3.27;;;;;;;14.68;100.00;62371.44;5092721;28;20666;-72
2022/05/08 06:12:00;;;;;;;9.27;3.03;;;;;;;14.06;100.00;62302.72;5091517;28;20232;-73
2022/05/08 06:14:27;;;;;;;5.17;2.80;;;;;;;14.44;100.00;62341.03;5093374;28;20257;-73
2022/05/08 06:16:55;;;;;;;7.13;3.13;;;;;;;14.82;100.00;62381.91;5093350;28;20196;-73
2022/05/08 06:19:22;;;;;;;7.33;3.30;;;;;;;14.74;100.00;62375.31;5092642;28;20195;-73
2022/05/08 06:21:49;;;;;;;11.70;3.90;;;;;;;15.07;97.45;62408.28;5092706;28;20199;-73
2022/05/08 06:24:17;;;;;;;8.70;3.60;;;;;;;15.07;100.00;62410.84;5092551;28;20747;-72
2022/05/08 06:26:44;;;;;;;8.60;2.97;;;;;;;15.43;96.30;62447.03;5092543;28;20646;-72
2022/05/08 06:29:11;;;;;;;7.87;3.50;;;;;;;15.69;93.79;62475.03;5092583;28;20222;-71
2022/05/08 06:31:38;;;;;;;6.27;3.43;;;;;;;15.45;93.30;62451.75;5092271;28;20227;-72
2022/05/08 06:34:04;;;;;;;5.30;3.03;;;;;;;15.73;95.37;62479.34;5092476;28;20319;-73
2022/05/08 06:36:32;;;;;;;8.70;3.47;;;;;;;15.74;97.23;62482.97;5092431;28;20200;-73
2022/05/08 06:38:59;;;;;;;6.70;3.30;;;;;;;15.82;95.64;62485.91;5092466;28;20223;-72
2022/05/08 06:41:27;;;;;;;7.13;3.07;;;;;;;15.98;92.09;62506.25;5092458;28;20207;-71
2022/05/08 06:43:55;;;;;;;8.13;3.53;;;;;;;16.37;89.86;62549.75;5092093;28;20225;-72
2022/05/08 06:46:22;;;;;;;7.37;3.17;;;;;;;16.06;88.26;62517.44;5092286;28;20196;-73
2022/05/08 06:48:49;;;;;;;4.97;3.10;;;;;;;16.30;85.96;62539.63;5092093;28;20272;-72
2022/05/08 06:51:16;;;;;;;6.67;3.30;;;;;;;16.21;87.19;62532.50;5091959;28;20223;-72
2022/05/08 06:53:43;;;;;;;5.77;3.37;;;;;;;16.60;89.43;62571.97;5092317;28;20295;-72
2022/05/08 06:56:13;;;;;;;9.37;3.00;;;;;;;16.56;90.49;62570.25;5092094;28;20666;-74
2022/05/08 07:01:36;;;;;;;5.00;3.23;;;;;;;16.87;84.16;62601.06;5091977;28;20701;-72
2022/05/08 07:04:04;;;;;;;4.70;3.00;;;;;;;16.83;82.61;62599.88;5091769;28;20563;-73
2022/05/08 07:06:31;;;;;;;5.87;2.70;;;;;;;17.09;78.53;62626.81;5091853;28;20195;-73
2022/05/08 07:08:59;;;;;;;6.10;2.63;;;;;;;17.03;79.65;62620.88;5091768;28;20196;-71
2022/05/08 07:11:28;;;;;;;7.80;3.40;;;;;;;17.23;83.24;62641.91;5091618;28;20314;-73
2022/05/08 07:13:56;;;;;;;8.60;3.60;;;;;;;17.36;77.17;62655.94;5091573;28;20242;-73
2022/05/08 07:16:23;;;;;;;7.33;3.77;;;;;;;17.63;78.43;62685.63;5091747;28;20222;-72
2022/05/08 07:18:50;;;;;;;6.40;2.90;;;;;;;17.89;75.86;62715.69;5090323;28;20207;-73
2022/05/08 07:21:18;;;;;;;13.87;3.63;;;;;;;17.82;75.18;62702.44;5091697;28;20200;-75
2022/05/08 07:23:45;;;;;;;8.80;3.00;;;;;;;17.92;74.48;62715.81;5091490;28;20211;-72
2022/05/08 07:26:12;;;;;;;9.03;3.57;;;;;;;17.86;73.91;62704.19;5091134;28;20280;-72
2022/05/08 07:28:38;;;;;;;7.57;3.40;;;;;;;17.82;75.71;62705.03;5091291;28;20272;-72
2022/05/08 07:31:07;;;;;;;6.00;3.27;;;;;;;17.99;77.39;62721.31;5091054;28;20706;-73
2022/05/08 07:33:36;;;;;;;7.53;4.00;;;;;;;17.59;70.94;62689.03;5091293;28;20225;-73
2022/05/08 07:36:15;;;;;;;7.27;3.63;;;;;;;18.27;71.25;62754.13;5091374;28;20731;-73
2022/05/08 07:38:43;;;;;;;8.43;3.73;;;;;;;18.23;71.03;62746.69;5091251;28;20243;-72
2022/05/08 07:41:11;;;;;;;4.73;2.97;;;;;;;17.97;69.88;62721.22;5091097;28;20290;-72
2022/05/08 07:43:39;;;;;;;6.20;2.80;;;;;;;17.77;74.14;62700.16;5091690;28;20199;-73
2022/05/08 07:46:07;;;;;;;7.53;3.00;;;;;;;18.04;75.28;62726.19;5091042;28;20209;-73
2022/05/08 07:48:35;;;;;;;6.17;2.80;;;;;;;18.12;77.79;62740.53;5091052;28;20658;-71
2022/05/08 07:51:02;;;;;;;5.43;2.80;;;;;;;18.33;75.60;62760.06;5091574;28;20219;-74
2022/05/08 07:53:31;;;;;;;5.33;3.17;;;;;;;18.27;73.61;62753.59;5090998;28;20207;-73
2022/05/08 07:55:58;;;;;;;9.40;3.30;;;;;;;18.72;73.78;62799.59;5090825;28;20638;-72
2022/05/08 07:58:28;;;;;;;5.27;2.73;;;;;;;18.03;69.01;62725.63;5090836;28;20727;-72
2022/05/08 08:00:57;;;;;;;4.63;2.90;;;;;;;18.31;74.43;62755.34;5090782;28;20291;-71
2022/05/08 08:03:27;;;;;;;6.27;3.37;;;;;;;18.79;76.66;62809.75;5091031;28;20659;-72
2022/05/08 08:05:55;;;;;;;10.43;3.60;;;;;;;19.34;72.11;62864.00;5090887;28;20244;-73
2022/05/08 08:08:25;;;;;;;13.47;3.60;;;;;;;19.48;67.70;62883.22;5090958;28;20191;-74
2022/05/08 08:10:53;;;;;;;8.83;3.53;;;;;;;18.61;66.84;62785.16;5091166;28;20223;-73
2022/05/08 08:13:20;;;;;;;8.67;3.30;;;;;;;18.69;67.36;62793.78;5091042;28;20235;-72
2022/05/08 08:15:48;;;;;;;6.30;3.27;;;;;;;18.95;69.49;62821.88;5090944;28;20206;-73
2022/05/08 08:18:16;;;;;;;8.07;3.63;;;;;;;19.30;67.84;62859.66;5091031;28;20196;-73
2022/05/08 08:20:44;;;;;;;8.73;3.33;;;;;;;19.68;68.17;62904.84;5090679;28;20286;-73
2022/05/08 08:23:11;;;;;;;6.67;3.10;;;;;;;19.89;69.69;62922.34;5090814;28;20204;-72
2022/05/08 08:25:39;;;;;;;8.27;3.40;;;;;;;20.13;62.43;62950.88;5091251;28;20260;-72
2022/05/08 08:28:06;;;;;;;7.17;3.40;;;;;;;20.33;63.53;62969.94;5090553;28;20223;-72
2022/05/08 08:30:33;;;;;;;7.07;3.33;;;;;;;20.33;62.30;62969.94;5090927;28;20196;-71
2022/05/08 08:33:02;;;;;;;7.80;3.27;;;;;;;20.40;60.30;62982.69;5094694;28;20200;-72
2022/05/08 08:35:29;;;;;;;4.90;3.00;;;;;;;20.08;58.90;62948.59;5095134;28;20231;-73
2022/05/08 08:37:57;;;;;;;6.17;3.10;;;;;;;20.92;59.96;63038.41;5094500;28;20662;-72
2022/05/08 08:40:24;;;;;;;9.90;4.47;;;;;;;21.03;55.25;63050.84;5094730;28;20279;-71
2022/05/08 08:42:51;;;;;;;4.77;2.70;;;;;;;21.17;57.90;63062.34;5094132;28;20273;-71
2022/05/08 08:48:06;;;;;;;4.33;3.17;;;;;;;21.13;58.72;63058.53;5094378;28;20202;-72
2022/05/08 08:50:34;;;;;;;5.90;2.80;;;;;;;21.23;57.75;63066.25;5094520;28;20199;-71
2022/05/08 08:53:04;;;;;;;4.03;2.90;;;;;;;21.29;59.06;63077.91;5094214;28;20223;-71
2022/05/08 08:55:32;;;;;;;8.43;3.20;;;;;;;21.26;56.90;63072.06;5094303;28;20199;-72
2022/05/08 08:58:00;;;;;;;4.40;3.00;;;;;;;21.52;51.99;63102.81;5094317;28;20563;-73
2022/05/08 09:00:27;;;;;;;6.47;2.90;;;;;;;21.39;51.61;63089.25;5094369;28;20196;-72
2022/05/08 09:02:55;;;;;;;5.73;2.77;;;;;;;22.05;50.92;63160.22;5094038;28;20196;-72
2022/05/08 09:05:24;;;;;;;6.20;3.40;;;;;;;21.83;52.59;63133.81;5094084;28;20235;-72
2022/05/08 09:07:53;;;;;;;7.50;3.60;;;;;;;21.74;55.13;63121.44;5093987;28;20686;-72
2022/05/08 09:10:23;;;;;;;7.03;3.23;;;;;;;21.91;54.17;63141.91;5094295;28;20203;-73
2022/05/08 09:13:05;;;;;;;4.27;3.20;;;;;;;21.92;52.96;63146.13;5093828;28;20234;-74
2022/05/08 09:15:34;;;;;;;4.00;2.80;;;;;;;19.46;54.88;62886.22;5094908;28;20203;-73
2022/05/08 09:18:03;;;;;;;5.53;2.80;;;;;;;22.07;58.66;63162.38;5094674;28;20200;-73
2022/05/08 09:20:46;;;;;;;5.17;2.90;;;;;;;21.83;53.07;63136.91;5094466;28;20245;-74
2022/05/08 09:23:15;;;;;;;7.93;3.17;;;;;;;22.19;51.41;63170.19;5094036;28;20195;-75
2022/05/08 09:25:49;;;;;;;4.63;3.00;;;;;;;21.87;53.07;63135.53;5094177;28;20207;-72
2022/05/08 09:28:17;;;;;;;6.87;3.17;;;;;;;21.83;53.29;63136.41;5094243;28;20192;-72
2022/05/08 09:31:01;;;;;;;7.57;3.10;;;;;;;22.07;53.28;63157.19;5093831;28;20287;-72
2022/05/08 09:33:32;;;;;;;5.60;2.63;;;;;;;21.90;46.45;63143.97;5093328;28;20203;-72
2022/05/08 09:36:00;;;;;;;3.20;2.57;;;;;;;22.22;46.05;63176.03;5094503;28;20667;-74
2022/05/08 09:38:47;;;;;;;6.27;2.60;;;;;;;22.48;42.28;63204.19;5093868;28;20200;-73
2022/05/08 09:41:18;;;;;;;3.90;2.40;;;;;;;21.99;40.74;63153.72;5093570;28;20203;-72
2022/05/08 09:43:46;;;;;;;4.50;2.30;;;;;;;22.09;41.12;63159.34;5092327;28;20196;-73
2022/05/08 09:46:13;;;;;;;5.27;2.20;;;;;;;22.30;40.44;63182.09;5093261;28;20666;-72
2022/05/08 09:48:40;;;;;;;4.40;2.20;;;;;;;22.47;39.63;63205.72;5093540;28;20238;-73
2022/05/08 09:51:09;;;;;;;3.23;2.00;;;;;;;22.83;36.20;63246.25;5093126;28;20499;-72
2022/05/08 09:53:38;;;;;;;4.70;2.10;;;;;;;22.90;35.55;63246.06;5093475;28;20204;-74
2022/05/08 09:56:06;;;;;;;2.10;1.90;;;;;;;22.87;34.04;63245.94;5093170;28;20607;-73
2022/05/08 09:58:35;;;;;;;4.70;2.00;;;;;;;23.32;34.16;63291.59;5091647;28;20210;-73
2022/05/08 10:01:03;;;;;;;2.00;1.60;;;;;;;23.43;30.74;63304.06;5093122;28;20206;-72
2022/05/08 10:03:31;;;;;;;2.13;1.87;;;;;;;23.55;31.53;63321.72;5093301;28;20258;-73
2022/05/08 10:06:00;;;;;;;2.40;1.80;;;;;;;23.63;30.85;63330.41;5092971;28;20200;-72
2022/05/08 10:08:29;;;;;;;4.20;1.80;;;;;;;23.74;31.22;63342.34;5093302;28;20199;-74
2022/05/08 10:14:00;;;;;;;2.20;2.00;;;;;;;24.02;31.47;63372.72;5093376;28;20210;-73
2022/05/08 10:16:46;;;;;;;4.23;2.07;;;;;;;23.95;32.35;63365.13;5093078;28;20198;-73
2022/05/08 10:19:47;;;;;;;4.50;2.57;;;;;;;24.10;33.29;63381.41;5092796;28;20571;-72
2022/05/08 10:22:15;;;;;;;4.23;2.40;;;;;;;24.09;33.36;63382.38;5092943;28;20227;-73
2022/05/08 10:24:46;;;;;;;5.60;2.80;;;;;;;24.43;34.06;63416.66;5092592;28;20196;-74
2022/05/08 10:27:15;;;;;;;2.47;2.00;;;;;;;24.74;32.91;63449.81;5092496;28;20220;-73
2022/05/08 10:30:03;;;;;;;4.23;2.60;;;;;;;24.49;33.53;63425.25;5092619;28;20196;-75
2022/05/08 10:32:51;;;;;;;7.50;2.40;;;;;;;24.49;33.47;63417.44;5092577;28;20235;-71
2022/05/08 10:35:23;;;;;;;5.53;2.70;;;;;;;24.63;33.44;63435.25;5092681;28;20614;-72
2022/05/08 10:37:51;;;;;;;4.10;2.33;;;;;;;24.41;34.30;63413.97;5092368;28;20279;-72
2022/05/08 10:40:42;;;;;;;3.60;2.13;;;;;;;24.62;33.39;63436.75;5092169;28;20281;-73
2022/05/08 10:43:32;;;;;;;5.17;2.50;;;;;;;24.20;35.45;63392.28;5072455;28;20668;-75
2022/05/08 10:46:25;;;;;;;3.17;1.97;;;;;;;24.05;34.76;63375.97;5092282;28;20208;-72
2022/05/08 10:48:54;;;;;;;2.57;2.00;;;;;;;23.92;35.87;63361.31;5091987;28;20201;-74
2022/05/08 10:51:21;;;;;;;2.60;2.37;;;;;;;24.29;36.38;63399.41;5092275;28;20200;-72
2022/05/08 10:53:48;;;;;;;4.07;2.10;;;;;;;24.56;33.49;63430.78;5091696;28;20652;-72
2022/05/08 10:56:15;;;;;;;2.67;2.13;;;;;;;25.05;33.48;63483.47;5092141;28;20277;-73
2022/05/08 10:58:53;;;;;;;4.33;2.30;;;;;;;24.41;34.81;63416.56;5092186;28;20690;-72
2022/05/08 11:01:23;;;;;;;5.27;2.43;;;;;;;24.15;36.08;63384.22;5091854;28;20192;-73
2022/05/08 11:03:50;;;;;;;2.80;1.97;;;;;;;24.22;33.37;63397.03;5091840;28;20286;-72
2022/05/08 11:06:21;;;;;;;3.90;2.40;;;;;;;24.68;33.71;63438.06;5091887;28;20201;-74
2022/05/08 11:08:48;;;;;;;3.03;2.40;;;;;;;24.71;34.49;63446.53;5092009;28;20584;-73
2022/05/08 11:11:16;;;;;;;4.50;2.23;;;;;;;25.03;34.06;63481.81;5091615;28;20196;-74
2022/05/08 11:13:47;;;;;;;2.43;2.13;;;;;;;24.72;33.86;63439.78;5091336;28;20232;-73
2022/05/08 11:16:33;;;;;;;3.07;1.97;;;;;;;24.89;32.28;63466.09;5091782;28;20200;-73
2022/05/08 11:19:03;;;;;;;5.43;2.07;;;;;;;24.95;31.47;63472.63;5092077;28;20201;-73
2022/05/08 11:21:30;;;;;;;4.87;1.80;;;;;;;24.66;30.70;63441.09;5092071;28;20224;-75
2022/05/08 11:23:58;;;;;;;2.03;1.70;;;;;;;24.36;30.53;63405.94;5091463;28;20680;-74
2022/05/08 11:26:29;;;;;;;2.17;1.63;;;;;;;24.79;30.36;63450.56;5091498;28;20223;-72
2022/05/08 11:28:58;;;;;;;9.60;2.03;;;;;;;25.14;31.31;63488.56;5091561;28;20196;-74
2022/05/08 11:31:28;;;;;;;1.93;1.73;;;;;;;25.54;30.83;63531.47;5091295;28;20236;-73
2022/05/08 11:36:41;;;;;;;2.37;2.10;;;;;;;25.25;29.37;63499.97;5091211;28;20207;-74
2022/05/08 11:39:12;;;;;;;4.33;1.77;;;;;;;25.71;30.58;63552.03;5091336;28;20253;-72
2022/05/08 11:41:41;;;;;;;1.87;1.77;;;;;;;25.73;29.20;63554.75;5091250;28;20202;-72
2022/05/08 11:44:23;;;;;;;5.40;2.00;;;;;;;25.56;27.56;63538.31;5091064;28;20558;-73
2022/05/08 11:46:52;;;;;;;2.87;1.60;;;;;;;25.60;27.20;63543.22;5090056;28;20206;-73
2022/05/08 11:49:20;;;;;;;2.13;1.60;;;;;;;25.67;27.67;63556.06;5091516;28;20275;-73
2022/05/08 11:51:50;;;;;;;4.07;1.50;;;;;;;25.86;26.89;63566.25;5091149;28;20196;-73
2022/05/08 11:54:21;;;;;;;10.23;2.40;;;;;;;26.14;26.73;63595.63;5091445;28;20198;-72
2022/05/08 11:56:51;;;;;;;1.60;1.50;;;;;;;26.06;26.08;63590.03;5091175;28;20678;-73
2022/05/08 11:59:21;;;;;;;1.40;1.30;;;;;;;25.26;24.69;63500.50;5091287;28;20210;-73
2022/05/08 12:01:50;;;;;;;2.00;1.37;;;;;;;25.79;24.61;63561.25;5090827;28;20203;-73